Terminal Aerodrome Forecast
Issued by NWS St Louis, MO

Home | Current Version | Previous Version | Text Only | Print | Product List | Glossary On
Versions: 1 2 3 4 5 6 7 8 9 10 11 12 13 14 15 16 17
151
FTUS43 KLSX 171514 AAA
TAFCOU
TAF AMD
KCOU 171514Z 1715/1812 23009KT P6SM BKN008
     FM171600 25010KT P6SM BKN015
     FM171700 27013G20KT P6SM SCT200
     FM180600 28005KT P6SM SKC=

USA.gov is the U.S. government's official web portal to all federal, state and local government web resources and services.